Gil Vicente — CSKG — position and weather

sailwx.info

Track history (hours):
 
Tides and Currents Weather Stations Pressure Air Temp Water Temp Dewpoint Dewpoint Depression Visibility Wind Speed Wind Dir Waves Ship Positions

Gil Vicente

Last reported at 2014-Dec-18 11:25 UTC. Time now 2014-Dec-18 15:27 UTC.
Position N 38°39' W 009°05'.

Length 49 m.

Type: Passenger vessel. MMSI: 263701390.

Date/timePositionNaut miles runAvg speedWind from/ knotsBaromVisibWave heightAir tempDewpointWater temp
2014-Dec-18 11:25N 38°39' W 009°05'1 1.0
2014-Dec-18 10:33N 38°39' W 009°06'0 0.3
2014-Dec-18 09:34N 38°39' W 009°06'3 3.4
2014-Dec-18 08:34N 38°42' W 009°08'1 0.6
2014-Dec-18 07:34N 38°42' W 009°08'4 0.4
2014-Dec-17 21:22N 38°39' W 009°05'3 3.5
2014-Dec-17 20:33N 38°41' W 009°08'2 2.1
2014-Dec-17 19:34N 38°39' W 009°06'3 3.1
2014-Dec-17 18:33N 38°42' W 009°08'0 0.3
2014-Dec-17 17:34N 38°42' W 009°08'1 1.2
2014-Dec-17 16:34N 38°41' W 009°08'3 3.2
2014-Dec-17 15:33N 38°39' W 009°05'1 1.2
2014-Dec-17 14:33N 38°40' W 009°06'0 0.3
2014-Dec-17 13:33N 38°40' W 009°06'1 1.4
2014-Dec-17 12:33N 38°39' W 009°05'0 0.0
2014-Dec-17 11:33N 38°39' W 009°05'3 2.6
2014-Dec-17 10:33N 38°40' W 009°08'3 2.8
2014-Dec-17 09:33N 38°39' W 009°05'1 0.6
2014-Dec-17 08:34N 38°39' W 009°05'3 3.4
2014-Dec-17 07:34N 38°42' W 009°08'1 0.6
2014-Dec-17 06:33N 38°42' W 009°08'0 0.0
2014-Dec-17 05:34N 38°42' W 009°08'4 4.2
2014-Dec-17 04:34N 38°39' W 009°05'0 0.0
2014-Dec-17 03:34N 38°39' W 009°05'0 0.0
2014-Dec-17 02:33N 38°39' W 009°05'1 0.6
2014-Dec-17 01:34N 38°39' W 009°05'0 0.1
2014-Dec-17 00:34N 38°39' W 009°05'0 0.1
2014-Dec-16 23:33N 38°39' W 009°05'1 1.0
2014-Dec-16 22:33N 38°40' W 009°06'0 0.1
2014-Dec-16 21:34N 38°40' W 009°07'2 1.7
2014-Dec-16 20:34N 38°39' W 009°05'0 0.0
2014-Dec-16 19:33N 38°39' W 009°05'1 1.1
2014-Dec-16 18:34N 38°40' W 009°06'3 3.1
2014-Dec-16 17:33N 38°42' W 009°08'4 4.0
2014-Dec-16 16:34N 38°39' W 009°05'0 0.0
2014-Dec-16 13:18N 38°39' W 009°05'2 2.2
2014-Dec-16 12:33N 38°40' W 009°07'1 0.5
2014-Dec-16 11:34N 38°40' W 009°06'1 1.1
2014-Dec-16 10:34N 38°39' W 009°05'0 0.0
2014-Dec-16 09:34N 38°39' W 009°05'0 0.0
2014-Dec-16 08:33N 38°39' W 009°05'1 0.5
2014-Dec-16 07:34N 38°39' W 009°05'0 0.5
2014-Dec-16 06:33N 38°39' W 009°05'4 0.4
2014-Dec-15 20:34N 38°42' W 009°08'0 0.3
2014-Dec-15 19:33N 38°42' W 009°08'1 0.9
2014-Dec-15 18:33N 38°42' W 009°08'3 2.9
2014-Dec-15 17:33N 38°39' W 009°05'3 3.5
2014-Dec-15 16:34N 38°42' W 009°08'1 1.1
2014-Dec-15 15:33N 38°41' W 009°08'0 0.1
2014-Dec-15 14:34N 38°41' W 009°08'0 0.2
2014-Dec-15 13:34N 38°41' W 009°08'0 0.2
2014-Dec-15 12:33N 38°41' W 009°08'0 0.2
2014-Dec-15 11:34N 38°41' W 009°08'3 2.8
2014-Dec-15 10:33N 38°39' W 009°05'2 1.8
2014-Dec-15 09:34N 38°40' W 009°07'3 2.7
2014-Dec-15 08:33N 38°42' W 009°08'1 1.4
2014-Dec-15 07:33N 38°41' W 009°08'3 2.8
2014-Dec-15 06:34N 38°39' W 009°05'  
2014-Dec-12 20:05N 38°39' W 009°05'4 7.6
2014-Dec-12 19:34N 38°42' W 009°08'0 0.2
2014-Dec-12 18:34N 38°42' W 009°08'3 2.5
2014-Dec-12 17:34N 38°40' W 009°07'1 1.5
2014-Dec-12 16:33N 38°39' W 009°05'1 0.9
2014-Dec-12 15:34N 38°40' W 009°06'1 1.3
2014-Dec-12 14:33N 38°39' W 009°05'0 0.0
2014-Dec-12 13:33N 38°39' W 009°05'0 0.0
2014-Dec-12 12:33N 38°39' W 009°05'0 0.0
2014-Dec-12 11:33N 38°39' W 009°05'0 0.1
2014-Dec-12 10:33N 38°39' W 009°05'1 1.2
2014-Dec-12 09:33N 38°40' W 009°06'0 0.3
2014-Dec-12 08:34N 38°39' W 009°06'1 0.9
2014-Dec-12 07:33N 38°39' W 009°05'4 0.5
2014-Dec-11 23:34N 38°42' W 009°08'1 1.2
2014-Dec-11 22:34N 38°41' W 009°08'0 0.4
2014-Dec-11 21:33N 38°41' W 009°08'3 3.0
2014-Dec-11 20:33N 38°39' W 009°05'0 0.2
2014-Dec-11 19:33N 38°39' W 009°05'0 0.2
2014-Dec-11 18:33N 38°39' W 009°05'1 1.4
2014-Dec-11 17:33N 38°40' W 009°06'1 1.4
2014-Dec-11 16:33N 38°39' W 009°05'0 0.0
2014-Dec-11 13:20N 38°39' W 009°05'2 1.9
2014-Dec-11 12:34N 38°40' W 009°06'0 0.3
2014-Dec-11 11:33N 38°40' W 009°06'1 1.1
2014-Dec-11 10:33N 38°39' W 009°05'0 0.0
2014-Dec-11 09:33N 38°39' W 009°05'0 0.0
2014-Dec-11 08:34N 38°39' W 009°05'1 1.5
2014-Dec-11 07:33N 38°40' W 009°06'1 1.4
2014-Dec-11 06:34N 38°39' W 009°05'0 0.0
2014-Dec-10 21:22N 38°39' W 009°05'3 4.3
2014-Dec-10 20:34N 38°42' W 009°08'3 2.6
2014-Dec-10 19:33N 38°39' W 009°06'3 2.6
2014-Dec-10 18:34N 38°42' W 009°08'1 0.8
2014-Dec-10 17:34N 38°42' W 009°08'1 1.0
2014-Dec-10 16:33N 38°42' W 009°07'3 3.3
2014-Dec-10 15:33N 38°39' W 009°05'2 1.6
2014-Dec-10 14:33N 38°40' W 009°06'0 0.1
2014-Dec-10 13:34N 38°40' W 009°06'1 0.5
2014-Dec-10 10:33N 38°41' W 009°07'3 2.8
2014-Dec-10 09:33N 38°39' W 009°05'1 1.0
2014-Dec-10 08:34N 38°39' W 009°06'3 2.7
2014-Dec-10 07:34N 38°42' W 009°08'1 0.7
2014-Dec-10 06:33N 38°42' W 009°08'0 0.0
2014-Dec-10 05:33N 38°42' W 009°08'4 1.3
2014-Dec-10 02:25N 38°39' W 009°05'0 0.4
2014-Dec-10 01:34N 38°39' W 009°05'0 0.1
2014-Dec-10 00:34N 38°39' W 009°05'0 0.0
2014-Dec-09 23:34N 38°39' W 009°05'1 1.2
2014-Dec-09 22:34N 38°40' W 009°07'0 0.3
2014-Dec-09 21:33N 38°40' W 009°06'1 1.3
2014-Dec-09 20:33N 38°39' W 009°05'0 0.0
2014-Dec-09 19:34N 38°39' W 009°05'1 1.3
2014-Dec-09 18:34N 38°40' W 009°06'3 2.8
2014-Dec-09 17:33N 38°42' W 009°08'4 3.9
2014-Dec-09 16:33N 38°39' W 009°05'0 0.0
2014-Dec-09 13:26N 38°39' W 009°05'2 1.8
2014-Dec-09 12:33N 38°40' W 009°07'1 0.5
2014-Dec-09 11:33N 38°40' W 009°06'1 1.1
2014-Dec-09 10:33N 38°39' W 009°05'0 0.0
2014-Dec-09 09:33N 38°39' W 009°05'0 0.0
2014-Dec-09 08:33N 38°39' W 009°05'1 0.6
2014-Dec-09 07:34N 38°39' W 009°06'1 0.6
2014-Dec-09 06:33N 38°39' W 009°05'  
Track history (hours):
 
Tides and Currents Weather Stations Pressure Air Temp Water Temp Dewpoint Dewpoint Depression Visibility Wind Speed Wind Dir Waves Ship Positions

Gil Vicente

Last reported at 2014-Dec-18 11:25 UTC. Time now 2014-Dec-18 15:27 UTC.
Position N 38°39' W 009°05'.

Length 49 m.

Type: Passenger vessel. MMSI: 263701390.

Date/timePositionNaut miles runAvg speedWind from/ knotsBaromVisibWave heightAir tempDewpointWater temp
2014-Dec-18 11:25N 38°39' W 009°05'1 1.0
2014-Dec-18 10:33N 38°39' W 009°06'0 0.3
2014-Dec-18 09:34N 38°39' W 009°06'3 3.4
2014-Dec-18 08:34N 38°42' W 009°08'1 0.6
2014-Dec-18 07:34N 38°42' W 009°08'4 0.4
2014-Dec-17 21:22N 38°39' W 009°05'3 3.5
2014-Dec-17 20:33N 38°41' W 009°08'2 2.1
2014-Dec-17 19:34N 38°39' W 009°06'3 3.1
2014-Dec-17 18:33N 38°42' W 009°08'0 0.3
2014-Dec-17 17:34N 38°42' W 009°08'1 1.2
2014-Dec-17 16:34N 38°41' W 009°08'3 3.2
2014-Dec-17 15:33N 38°39' W 009°05'1 1.2
2014-Dec-17 14:33N 38°40' W 009°06'0 0.3
2014-Dec-17 13:33N 38°40' W 009°06'1 1.4
2014-Dec-17 12:33N 38°39' W 009°05'0 0.0
2014-Dec-17 11:33N 38°39' W 009°05'3 2.6
2014-Dec-17 10:33N 38°40' W 009°08'3 2.8
2014-Dec-17 09:33N 38°39' W 009°05'1 0.6
2014-Dec-17 08:34N 38°39' W 009°05'3 3.4
2014-Dec-17 07:34N 38°42' W 009°08'1 0.6
2014-Dec-17 06:33N 38°42' W 009°08'0 0.0
2014-Dec-17 05:34N 38°42' W 009°08'4 4.2
2014-Dec-17 04:34N 38°39' W 009°05'0 0.0
2014-Dec-17 03:34N 38°39' W 009°05'0 0.0
2014-Dec-17 02:33N 38°39' W 009°05'1 0.6
2014-Dec-17 01:34N 38°39' W 009°05'0 0.1
2014-Dec-17 00:34N 38°39' W 009°05'0 0.1
2014-Dec-16 23:33N 38°39' W 009°05'1 1.0
2014-Dec-16 22:33N 38°40' W 009°06'0 0.1
2014-Dec-16 21:34N 38°40' W 009°07'2 1.7
2014-Dec-16 20:34N 38°39' W 009°05'0 0.0
2014-Dec-16 19:33N 38°39' W 009°05'1 1.1
2014-Dec-16 18:34N 38°40' W 009°06'3 3.1
2014-Dec-16 17:33N 38°42' W 009°08'4 4.0
2014-Dec-16 16:34N 38°39' W 009°05'0 0.0
2014-Dec-16 13:18N 38°39' W 009°05'2 2.2
2014-Dec-16 12:33N 38°40' W 009°07'1 0.5
2014-Dec-16 11:34N 38°40' W 009°06'1 1.1
2014-Dec-16 10:34N 38°39' W 009°05'0 0.0
2014-Dec-16 09:34N 38°39' W 009°05'0 0.0
2014-Dec-16 08:33N 38°39' W 009°05'1 0.5
2014-Dec-16 07:34N 38°39' W 009°05'0 0.5
2014-Dec-16 06:33N 38°39' W 009°05'4 0.4
2014-Dec-15 20:34N 38°42' W 009°08'0 0.3
2014-Dec-15 19:33N 38°42' W 009°08'1 0.9
2014-Dec-15 18:33N 38°42' W 009°08'3 2.9
2014-Dec-15 17:33N 38°39' W 009°05'3 3.5
2014-Dec-15 16:34N 38°42' W 009°08'1 1.1
2014-Dec-15 15:33N 38°41' W 009°08'0 0.1
2014-Dec-15 14:34N 38°41' W 009°08'0 0.2
2014-Dec-15 13:34N 38°41' W 009°08'0 0.2
2014-Dec-15 12:33N 38°41' W 009°08'0 0.2
2014-Dec-15 11:34N 38°41' W 009°08'3 2.8
2014-Dec-15 10:33N 38°39' W 009°05'2 1.8
2014-Dec-15 09:34N 38°40' W 009°07'3 2.7
2014-Dec-15 08:33N 38°42' W 009°08'1 1.4
2014-Dec-15 07:33N 38°41' W 009°08'3 2.8
2014-Dec-15 06:34N 38°39' W 009°05'  
2014-Dec-12 20:05N 38°39' W 009°05'4 7.6
2014-Dec-12 19:34N 38°42' W 009°08'0 0.2
2014-Dec-12 18:34N 38°42' W 009°08'3 2.5
2014-Dec-12 17:34N 38°40' W 009°07'1 1.5
2014-Dec-12 16:33N 38°39' W 009°05'1 0.9
2014-Dec-12 15:34N 38°40' W 009°06'1 1.3
2014-Dec-12 14:33N 38°39' W 009°05'0 0.0
2014-Dec-12 13:33N 38°39' W 009°05'0 0.0
2014-Dec-12 12:33N 38°39' W 009°05'0 0.0
2014-Dec-12 11:33N 38°39' W 009°05'0 0.1
2014-Dec-12 10:33N 38°39' W 009°05'1 1.2
2014-Dec-12 09:33N 38°40' W 009°06'0 0.3
2014-Dec-12 08:34N 38°39' W 009°06'1 0.9
2014-Dec-12 07:33N 38°39' W 009°05'4 0.5
2014-Dec-11 23:34N 38°42' W 009°08'1 1.2
2014-Dec-11 22:34N 38°41' W 009°08'0 0.4
2014-Dec-11 21:33N 38°41' W 009°08'3 3.0
2014-Dec-11 20:33N 38°39' W 009°05'0 0.2
2014-Dec-11 19:33N 38°39' W 009°05'0 0.2
2014-Dec-11 18:33N 38°39' W 009°05'1 1.4
2014-Dec-11 17:33N 38°40' W 009°06'1 1.4
2014-Dec-11 16:33N 38°39' W 009°05'0 0.0
2014-Dec-11 13:20N 38°39' W 009°05'2 1.9
2014-Dec-11 12:34N 38°40' W 009°06'0 0.3
2014-Dec-11 11:33N 38°40' W 009°06'1 1.1
2014-Dec-11 10:33N 38°39' W 009°05'0 0.0
2014-Dec-11 09:33N 38°39' W 009°05'0 0.0
2014-Dec-11 08:34N 38°39' W 009°05'1 1.5
2014-Dec-11 07:33N 38°40' W 009°06'1 1.4
2014-Dec-11 06:34N 38°39' W 009°05'0 0.0
2014-Dec-10 21:22N 38°39' W 009°05'3 4.3
2014-Dec-10 20:34N 38°42' W 009°08'3 2.6
2014-Dec-10 19:33N 38°39' W 009°06'3 2.6
2014-Dec-10 18:34N 38°42' W 009°08'1 0.8
2014-Dec-10 17:34N 38°42' W 009°08'1 1.0
2014-Dec-10 16:33N 38°42' W 009°07'3 3.3
2014-Dec-10 15:33N 38°39' W 009°05'2 1.6
2014-Dec-10 14:33N 38°40' W 009°06'0 0.1
2014-Dec-10 13:34N 38°40' W 009°06'1 0.5
2014-Dec-10 10:33N 38°41' W 009°07'3 2.8
2014-Dec-10 09:33N 38°39' W 009°05'1 1.0
2014-Dec-10 08:34N 38°39' W 009°06'3 2.7
2014-Dec-10 07:34N 38°42' W 009°08'1 0.7
2014-Dec-10 06:33N 38°42' W 009°08'0 0.0
2014-Dec-10 05:33N 38°42' W 009°08'4 1.3
2014-Dec-10 02:25N 38°39' W 009°05'0 0.4
2014-Dec-10 01:34N 38°39' W 009°05'0 0.1
2014-Dec-10 00:34N 38°39' W 009°05'0 0.0
2014-Dec-09 23:34N 38°39' W 009°05'1 1.2
2014-Dec-09 22:34N 38°40' W 009°07'0 0.3
2014-Dec-09 21:33N 38°40' W 009°06'1 1.3
2014-Dec-09 20:33N 38°39' W 009°05'0 0.0
2014-Dec-09 19:34N 38°39' W 009°05'1 1.3
2014-Dec-09 18:34N 38°40' W 009°06'3 2.8
2014-Dec-09 17:33N 38°42' W 009°08'4 3.9
2014-Dec-09 16:33N 38°39' W 009°05'0 0.0
2014-Dec-09 13:26N 38°39' W 009°05'2 1.8
2014-Dec-09 12:33N 38°40' W 009°07'1 0.5
2014-Dec-09 11:33N 38°40' W 009°06'1 1.1
2014-Dec-09 10:33N 38°39' W 009°05'0 0.0
2014-Dec-09 09:33N 38°39' W 009°05'0 0.0
2014-Dec-09 08:33N 38°39' W 009°05'1 0.6
2014-Dec-09 07:34N 38°39' W 009°06'1 0.6
2014-Dec-09 06:33N 38°39' W 009°05'  

Dump ship's entire track history